sensor_id;sensor_type;location;lat;lon;timestamp;pressure;altitude;pressure_sealevel;temperature;humidity
59315;BME280;46521;50.160;20.802;2022-11-22T00:03:14;98680.17;;;2.01;78.15
59315;BME280;46521;50.160;20.802;2022-11-22T00:13:16;98684.17;;;1.95;78.25
59315;BME280;46521;50.160;20.802;2022-11-22T00:23:18;98675.92;;;1.80;77.76
59315;BME280;46521;50.160;20.802;2022-11-22T00:33:20;98668.91;;;1.71;77.97
59315;BME280;46521;50.160;20.802;2022-11-22T00:43:21;98684.67;;;1.59;77.75
59315;BME280;46521;50.160;20.802;2022-11-22T00:53:23;98684.94;;;1.56;77.79
59315;BME280;46521;50.160;20.802;2022-11-22T01:03:25;98698.50;;;1.50;77.71
59315;BME280;46521;50.160;20.802;2022-11-22T01:13:28;98689.86;;;1.40;77.94
59315;BME280;46521;50.160;20.802;2022-11-22T01:23:29;98695.18;;;1.29;77.94
59315;BME280;46521;50.160;20.802;2022-11-22T01:33:31;98692.84;;;1.25;78.25
59315;BME280;46521;50.160;20.802;2022-11-22T01:43:32;98703.52;;;1.22;78.13
59315;BME280;46521;50.160;20.802;2022-11-22T01:53:35;98723.09;;;1.17;77.67
59315;BME280;46521;50.160;20.802;2022-11-22T02:03:40;98728.35;;;0.96;77.42
59315;BME280;46521;50.160;20.802;2022-11-22T02:13:44;98739.66;;;0.64;77.18
59315;BME280;46521;50.160;20.802;2022-11-22T02:24:09;98735.47;;;0.51;77.33
59315;BME280;46521;50.160;20.802;2022-11-22T02:34:15;98730.58;;;0.37;77.55
59315;BME280;46521;50.160;20.802;2022-11-22T02:44:18;98728.73;;;0.28;77.42
59315;BME280;46521;50.160;20.802;2022-11-22T02:54:20;98709.95;;;0.24;77.64
59315;BME280;46521;50.160;20.802;2022-11-22T03:04:22;98711.39;;;0.17;77.69
59315;BME280;46521;50.160;20.802;2022-11-22T03:14:26;98694.06;;;0.06;77.80
59315;BME280;46521;50.160;20.802;2022-11-22T03:24:27;98678.47;;;0.06;77.76
59315;BME280;46521;50.160;20.802;2022-11-22T03:34:29;98682.73;;;0.07;77.82
59315;BME280;46521;50.160;20.802;2022-11-22T03:44:30;98688.73;;;0.08;77.87
59315;BME280;46521;50.160;20.802;2022-11-22T03:54:32;98695.23;;;0.13;78.04
59315;BME280;46521;50.160;20.802;2022-11-22T04:04:33;98688.98;;;0.05;77.86
59315;BME280;46521;50.160;20.802;2022-11-22T04:14:35;98691.52;;;-0.05;77.71
59315;BME280;46521;50.160;20.802;2022-11-22T04:24:55;98683.72;;;-0.05;77.84
59315;BME280;46521;50.160;20.802;2022-11-22T04:35:15;98696.84;;;-0.07;77.84
59315;BME280;46521;50.160;20.802;2022-11-22T04:45:18;98703.82;;;-0.07;77.81
59315;BME280;46521;50.160;20.802;2022-11-22T04:55:20;98693.55;;;-0.09;77.77
59315;BME280;46521;50.160;20.802;2022-11-22T05:05:22;98688.23;;;-0.07;77.62
59315;BME280;46521;50.160;20.802;2022-11-22T05:15:24;98690.33;;;-0.01;78.06
59315;BME280;46521;50.160;20.802;2022-11-22T05:25:25;98696.22;;;0.01;78.07
59315;BME280;46521;50.160;20.802;2022-11-22T05:35:28;98702.83;;;0.05;78.30
59315;BME280;46521;50.160;20.802;2022-11-22T05:45:29;98708.97;;;0.04;78.03
59315;BME280;46521;50.160;20.802;2022-11-22T05:55:30;98700.11;;;0.07;78.04
59315;BME280;46521;50.160;20.802;2022-11-22T06:05:32;98714.73;;;0.08;78.09
59315;BME280;46521;50.160;20.802;2022-11-22T06:15:34;98729.89;;;0.03;77.87
59315;BME280;46521;50.160;20.802;2022-11-22T06:25:35;98730.26;;;-0.02;77.74
59315;BME280;46521;50.160;20.802;2022-11-22T06:35:37;98725.31;;;-0.05;77.81
59315;BME280;46521;50.160;20.802;2022-11-22T06:45:38;98723.46;;;0.39;77.60
59315;BME280;46521;50.160;20.802;2022-11-22T06:55:39;98724.23;;;2.62;75.12
59315;BME280;46521;50.160;20.802;2022-11-22T07:05:50;98723.71;;;5.22;72.92
59315;BME280;46521;50.160;20.802;2022-11-22T07:15:53;98720.77;;;8.50;69.73
59315;BME280;46521;50.160;20.802;2022-11-22T07:25:55;98712.52;;;6.22;73.16
59315;BME280;46521;50.160;20.802;2022-11-22T07:36:11;98739.63;;;4.32;73.90
59315;BME280;46521;50.160;20.802;2022-11-22T07:56:22;98732.61;;;2.56;75.54
59315;BME280;46521;50.160;20.802;2022-11-22T08:06:24;98734.14;;;2.39;75.73
59315;BME280;46521;50.160;20.802;2022-11-22T08:16:26;98745.55;;;2.48;75.93
59315;BME280;46521;50.160;20.802;2022-11-22T08:26:27;98741.25;;;2.76;76.43
59315;BME280;46521;50.160;20.802;2022-11-22T08:36:29;98735.91;;;3.15;75.63
59315;BME280;46521;50.160;20.802;2022-11-22T08:46:31;98730.59;;;3.35;76.26
59315;BME280;46521;50.160;20.802;2022-11-22T08:56:32;98738.58;;;3.89;76.01
59315;BME280;46521;50.160;20.802;2022-11-22T09:06:34;98761.66;;;4.65;75.88
59315;BME280;46521;50.160;20.802;2022-11-22T09:16:35;98741.97;;;5.40;75.08
59315;BME280;46521;50.160;20.802;2022-11-22T09:26:37;98728.59;;;6.02;74.77
59315;BME280;46521;50.160;20.802;2022-11-22T09:36:38;98747.68;;;6.54;74.05
59315;BME280;46521;50.160;20.802;2022-11-22T09:46:47;98717.23;;;6.92;73.04
59315;BME280;46521;50.160;20.802;2022-11-22T09:56:53;98703.06;;;7.18;73.25
59315;BME280;46521;50.160;20.802;2022-11-22T10:07:19;98691.72;;;7.57;72.83
59315;BME280;46521;50.160;20.802;2022-11-22T10:27:53;98690.68;;;7.27;70.67
59315;BME280;46521;50.160;20.802;2022-11-22T11:09:03;98683.41;;;6.89;71.04
59315;BME280;46521;50.160;20.802;2022-11-22T11:19:13;98702.16;;;6.78;70.14
59315;BME280;46521;50.160;20.802;2022-11-22T11:39:19;98688.20;;;6.69;70.54
59315;BME280;46521;50.160;20.802;2022-11-22T11:49:29;98685.77;;;6.51;70.52
59315;BME280;46521;50.160;20.802;2022-11-22T11:59:43;98681.86;;;6.22;69.95
59315;BME280;46521;50.160;20.802;2022-11-22T12:09:48;98673.31;;;6.04;69.82
59315;BME280;46521;50.160;20.802;2022-11-22T12:19:55;98675.25;;;6.02;69.78
59315;BME280;46521;50.160;20.802;2022-11-22T12:30:01;98672.63;;;6.02;69.90
59315;BME280;46521;50.160;20.802;2022-11-22T12:40:20;98656.39;;;5.98;70.39
59315;BME280;46521;50.160;20.802;2022-11-22T12:50:35;98650.47;;;5.88;70.25
59315;BME280;46521;50.160;20.802;2022-11-22T13:00:42;98640.78;;;5.80;70.13
59315;BME280;46521;50.160;20.802;2022-11-22T13:31:33;98626.66;;;5.65;70.53
59315;BME280;46521;50.160;20.802;2022-11-22T13:41:38;98622.05;;;5.58;70.47
59315;BME280;46521;50.160;20.802;2022-11-22T13:51:56;98612.84;;;5.46;70.73
59315;BME280;46521;50.160;20.802;2022-11-22T14:02:00;98613.14;;;5.27;70.50
59315;BME280;46521;50.160;20.802;2022-11-22T14:32:47;98615.48;;;4.61;70.68
59315;BME280;46521;50.160;20.802;2022-11-22T14:42:52;98633.20;;;4.41;70.67
59315;BME280;46521;50.160;20.802;2022-11-22T14:52:57;98631.44;;;4.23;70.78
59315;BME280;46521;50.160;20.802;2022-11-22T15:23:41;98634.01;;;3.61;71.24
59315;BME280;46521;50.160;20.802;2022-11-22T15:33:48;98646.61;;;3.48;71.25
59315;BME280;46521;50.160;20.802;2022-11-22T15:43:51;98651.81;;;3.30;71.40
59315;BME280;46521;50.160;20.802;2022-11-22T16:03:59;98658.45;;;2.96;71.53
59315;BME280;46521;50.160;20.802;2022-11-22T16:14:01;98664.11;;;2.82;71.97
59315;BME280;46521;50.160;20.802;2022-11-22T16:24:15;98675.16;;;2.66;71.76
59315;BME280;46521;50.160;20.802;2022-11-22T16:34:17;98683.58;;;2.50;71.71
59315;BME280;46521;50.160;20.802;2022-11-22T16:44:20;98677.27;;;2.43;72.39
59315;BME280;46521;50.160;20.802;2022-11-22T16:54:21;98677.44;;;2.22;72.61
59315;BME280;46521;50.160;20.802;2022-11-22T17:04:24;98686.09;;;2.03;72.83
59315;BME280;46521;50.160;20.802;2022-11-22T17:14:27;98685.97;;;1.94;72.88
59315;BME280;46521;50.160;20.802;2022-11-22T17:24:28;98692.95;;;1.84;73.16
59315;BME280;46521;50.160;20.802;2022-11-22T17:34:30;98684.98;;;1.76;72.71
59315;BME280;46521;50.160;20.802;2022-11-22T17:44:31;98695.69;;;1.73;73.13
59315;BME280;46521;50.160;20.802;2022-11-22T17:54:34;98694.16;;;1.70;73.55
59315;BME280;46521;50.160;20.802;2022-11-22T18:04:35;98696.49;;;1.64;73.59
59315;BME280;46521;50.160;20.802;2022-11-22T18:14:36;98689.20;;;1.57;73.37
59315;BME280;46521;50.160;20.802;2022-11-22T18:24:38;98706.77;;;1.55;73.89
59315;BME280;46521;50.160;20.802;2022-11-22T18:34:39;98707.03;;;1.52;73.63
59315;BME280;46521;50.160;20.802;2022-11-22T18:44:41;98703.03;;;1.48;73.60
59315;BME280;46521;50.160;20.802;2022-11-22T18:54:43;98697.83;;;1.48;73.64
59315;BME280;46521;50.160;20.802;2022-11-22T19:04:44;98701.64;;;1.44;73.68
59315;BME280;46521;50.160;20.802;2022-11-22T19:14:46;98702.88;;;1.40;73.90
59315;BME280;46521;50.160;20.802;2022-11-22T19:24:47;98693.94;;;1.33;73.64
59315;BME280;46521;50.160;20.802;2022-11-22T19:34:49;98700.20;;;1.20;73.54
59315;BME280;46521;50.160;20.802;2022-11-22T19:44:51;98684.55;;;1.11;73.74
59315;BME280;46521;50.160;20.802;2022-11-22T19:54:53;98711.80;;;1.06;74.01
59315;BME280;46521;50.160;20.802;2022-11-22T20:04:54;98726.17;;;1.01;73.96
59315;BME280;46521;50.160;20.802;2022-11-22T20:14:56;98736.29;;;0.94;73.56
59315;BME280;46521;50.160;20.802;2022-11-22T20:24:58;98720.85;;;0.81;74.10
59315;BME280;46521;50.160;20.802;2022-11-22T20:34:59;98724.48;;;0.69;74.17
59315;BME280;46521;50.160;20.802;2022-11-22T20:45:01;98708.44;;;0.64;74.09
59315;BME280;46521;50.160;20.802;2022-11-22T20:55:08;98730.27;;;0.51;74.23
59315;BME280;46521;50.160;20.802;2022-11-22T21:05:10;98720.83;;;0.50;74.31
59315;BME280;46521;50.160;20.802;2022-11-22T21:15:12;98722.52;;;0.40;74.18
59315;BME280;46521;50.160;20.802;2022-11-22T21:25:15;98733.43;;;0.34;74.50
59315;BME280;46521;50.160;20.802;2022-11-22T21:35:16;98738.63;;;0.34;74.23
59315;BME280;46521;50.160;20.802;2022-11-22T21:45:18;98714.78;;;0.29;74.11
59315;BME280;46521;50.160;20.802;2022-11-22T21:55:19;98716.94;;;0.24;74.17
59315;BME280;46521;50.160;20.802;2022-11-22T22:05:21;98725.12;;;0.19;74.19
59315;BME280;46521;50.160;20.802;2022-11-22T22:15:23;98730.22;;;0.09;74.08
59315;BME280;46521;50.160;20.802;2022-11-22T22:25:24;98735.66;;;0.06;74.15
59315;BME280;46521;50.160;20.802;2022-11-22T22:35:26;98741.11;;;0.03;74.18
59315;BME280;46521;50.160;20.802;2022-11-22T22:45:27;98732.86;;;-0.02;73.83
59315;BME280;46521;50.160;20.802;2022-11-22T22:55:29;98724.61;;;-0.07;74.41
59315;BME280;46521;50.160;20.802;2022-11-22T23:05:30;98726.52;;;-0.09;74.85
59315;BME280;46521;50.160;20.802;2022-11-22T23:15:32;98717.19;;;-0.12;74.88
59315;BME280;46521;50.160;20.802;2022-11-22T23:25:33;98708.09;;;-0.17;74.72
59315;BME280;46521;50.160;20.802;2022-11-22T23:35:35;98722.30;;;-0.22;74.98
